Time;durP1;ratioP1;P1;durP2;ratioP2;P2;SDS_P1;SDS_P2;PMS_P1;PMS_P2;Temp;Humidity;BMP_temperature;BMP_pressure;BME280_temperature;BME280_humidity;BME280_pressure;Samples;Min_cycle;Max_cycle;Signal;HPM_P1;HPM_P2
2023/12/19 00:01:52;;;;;;;100.25;53.70;;;9.00;99.90;;;9.25;100.00;102336.78;4899651;29;20056;-73
2023/12/19 00:04:21;;;;;;;95.90;52.45;;;9.00;99.90;;;9.23;100.00;102336.75;4899506;29;20506;-72
2023/12/19 00:06:49;;;;;;;84.32;51.13;;;9.00;99.90;;;9.32;100.00;102313.19;4899582;29;20048;-71
2023/12/19 00:09:18;;;;;;;93.25;53.13;;;9.10;99.90;;;9.23;100.00;102304.16;4899469;29;20502;-74
2023/12/19 00:11:46;;;;;;;85.55;49.72;;;9.10;99.90;;;9.25;100.00;102289.25;4898654;29;20122;-77
2023/12/19 00:14:15;;;;;;;97.72;53.05;;;9.00;99.90;;;9.24;100.00;102271.59;4899470;29;20048;-73
2023/12/19 00:16:43;;;;;;;90.05;53.08;;;9.00;99.90;;;9.04;100.00;102261.47;4899423;29;20347;-74
2023/12/19 00:19:13;;;;;;;94.28;54.30;;;9.00;99.90;;;9.21;100.00;102271.53;4899229;29;20414;-75
2023/12/19 00:21:42;;;;;;;97.63;55.55;;;9.00;99.90;;;9.27;100.00;102282.25;4899285;29;20055;-74
2023/12/19 00:24:11;;;;;;;90.05;54.00;;;9.00;99.90;;;9.27;100.00;102290.19;4899259;29;20075;-74
2023/12/19 00:26:40;;;;;;;92.18;52.55;;;9.10;99.90;;;9.23;100.00;102257.53;4899177;29;20048;-74
2023/12/19 00:29:08;;;;;;;97.47;53.35;;;9.10;99.90;;;9.35;100.00;102264.84;4899197;29;20465;-74
2023/12/19 00:31:36;;;;;;;102.50;54.42;;;9.20;99.90;;;9.35;100.00;102267.50;4898880;29;20482;-74
2023/12/19 00:34:05;;;;;;;94.05;53.40;;;9.10;99.90;;;9.41;100.00;102257.03;4891714;29;20048;-74
2023/12/19 00:36:35;;;;;;;109.93;55.85;;;9.10;99.90;;;9.31;100.00;102266.50;4899018;29;20463;-75
2023/12/19 00:39:04;;;;;;;102.30;54.47;;;9.10;99.90;;;9.38;100.00;102251.69;4898989;29;20064;-75
2023/12/19 00:41:33;;;;;;;104.22;56.30;;;9.10;99.90;;;9.19;100.00;102247.75;4898949;29;20058;-74
2023/12/19 00:44:03;;;;;;;91.50;52.05;;;9.10;99.90;;;9.29;100.00;102262.06;4898855;29;20076;-74
2023/12/19 00:46:32;;;;;;;97.65;53.00;;;9.00;99.90;;;9.23;100.00;102265.47;4899111;29;20112;-74
2023/12/19 00:49:00;;;;;;;98.63;52.70;;;9.10;99.90;;;9.26;100.00;102248.78;4905935;29;20052;-74
2023/12/19 00:51:29;;;;;;;113.90;51.97;;;9.10;99.90;;;9.17;100.00;102260.03;4899134;29;20091;-74
2023/12/19 00:53:58;;;;;;;95.18;47.88;;;9.00;99.90;;;9.26;100.00;102240.84;4898668;29;20072;-74
2023/12/19 00:56:27;;;;;;;93.95;50.78;;;9.00;99.90;;;9.19;100.00;102258.31;4898960;29;20415;-74
2023/12/19 00:58:55;;;;;;;99.32;52.17;;;9.00;99.90;;;8.58;100.00;102113.50;4898500;29;20044;-74
2023/12/19 01:01:24;;;;;;;105.55;53.58;;;9.10;99.90;;;9.15;100.00;102224.78;4898951;29;20451;-74
2023/12/19 01:03:53;;;;;;;110.35;53.58;;;9.00;99.90;;;9.21;100.00;102235.50;4898707;29;20371;-74
2023/12/19 01:06:22;;;;;;;98.20;53.13;;;9.00;99.90;;;9.31;100.00;102240.09;4905497;29;20076;-74
2023/12/19 01:08:50;;;;;;;105.22;55.50;;;9.00;99.90;;;9.32;100.00;102233.97;4898343;29;20057;-74
2023/12/19 01:11:20;;;;;;;110.07;56.95;;;9.10;99.90;;;9.24;100.00;102214.44;4905410;29;20056;-74
2023/12/19 01:13:49;;;;;;;103.53;55.17;;;9.10;99.90;;;9.33;100.00;102241.03;4928807;29;20056;-74
2023/12/19 01:16:17;;;;;;;106.03;55.58;;;9.10;99.90;;;9.28;100.00;102218.91;4891039;29;20395;-74
2023/12/19 01:18:46;;;;;;;102.20;56.75;;;9.10;99.90;;;9.27;100.00;102217.13;4898190;29;20056;-74
2023/12/19 01:21:14;;;;;;;103.90;55.28;;;9.10;99.90;;;9.28;100.00;102213.63;4898532;29;20055;-74
2023/12/19 01:23:43;;;;;;;93.20;52.15;;;9.10;99.90;;;9.32;100.00;102211.94;4927323;29;20135;-74
2023/12/19 01:26:11;;;;;;;97.55;51.95;;;9.10;99.90;;;9.40;100.00;102219.19;4898138;29;20059;-74
2023/12/19 01:28:49;;;;;;;85.60;51.35;;;9.20;99.90;;;9.40;100.00;102216.56;4894953;29;20055;-74
2023/12/19 01:31:17;;;;;;;82.88;50.95;;;9.10;99.90;;;9.34;100.00;102213.78;4898126;29;20113;-74
2023/12/19 01:33:46;;;;;;;78.93;47.95;;;9.20;99.90;;;9.35;100.00;102210.25;4898029;29;20398;-74
2023/12/19 01:36:14;;;;;;;82.25;49.30;;;9.10;99.90;;;9.36;100.00;102220.00;4897876;29;20460;-74
2023/12/19 01:38:43;;;;;;;78.05;48.40;;;9.10;99.90;;;9.36;100.00;102227.91;4897881;29;20414;-74
2023/12/19 01:41:11;;;;;;;80.28;46.22;;;9.10;99.90;;;9.29;100.00;102207.47;4897859;29;20076;-74
2023/12/19 01:43:39;;;;;;;85.25;48.72;;;9.10;99.90;;;9.29;100.00;102215.41;4897717;29;20048;-74
2023/12/19 01:46:16;;;;;;;85.00;47.85;;;9.10;99.90;;;9.37;100.00;102212.97;4897800;29;20037;-74
2023/12/19 01:48:44;;;;;;;77.32;47.03;;;9.20;99.90;;;9.29;100.00;102198.69;4897976;29;20411;-74
2023/12/19 01:51:14;;;;;;;82.97;48.20;;;9.10;99.90;;;9.33;100.00;102219.91;4897724;29;20139;-74
2023/12/19 01:53:45;;;;;;;86.57;50.05;;;9.10;99.90;;;9.31;100.00;102200.50;4894746;29;20143;-74
2023/12/19 01:56:17;;;;;;;79.22;50.72;;;9.10;99.90;;;9.22;100.00;102199.41;4897741;29;20466;-74
2023/12/19 01:58:46;;;;;;;96.82;53.30;;;9.10;99.90;;;9.35;100.00;102175.94;4897763;29;20063;-74
2023/12/19 02:01:17;;;;;;;88.07;54.17;;;9.10;99.90;;;9.38;100.00;102189.22;4897494;29;20049;-74
2023/12/19 02:03:47;;;;;;;87.75;53.35;;;9.10;99.90;;;9.36;100.00;102177.75;4894170;29;20292;-74
2023/12/19 02:06:18;;;;;;;93.75;55.05;;;9.10;99.90;;;9.26;100.00;102178.38;4928018;29;20052;-74
2023/12/19 02:08:46;;;;;;;83.10;51.90;;;9.10;99.90;;;9.37;100.00;102187.44;4897797;29;20084;-73
2023/12/19 02:11:15;;;;;;;86.32;50.53;;;9.10;99.90;;;9.23;100.00;102183.63;4897428;29;20136;-74
2023/12/19 02:13:45;;;;;;;84.97;50.03;;;9.00;99.90;;;9.25;100.00;102176.63;4897238;29;20053;-74
2023/12/19 02:16:13;;;;;;;78.93;48.63;;;9.10;99.90;;;8.98;100.00;102129.38;4894258;29;20384;-73
2023/12/19 02:18:44;;;;;;;85.32;49.90;;;9.10;99.90;;;9.22;100.00;102171.25;4897304;29;20048;-74
2023/12/19 02:21:12;;;;;;;83.50;48.90;;;9.00;99.90;;;9.30;100.00;102158.22;4897348;29;20498;-74
2023/12/19 02:23:42;;;;;;;77.38;48.35;;;9.10;99.90;;;9.14;100.00;102127.09;4897257;29;20048;-73
2023/12/19 02:26:10;;;;;;;80.33;45.60;;;9.10;99.90;;;9.25;100.00;102123.81;4897569;29;20162;-74
2023/12/19 02:28:39;;;;;;;75.95;46.25;;;9.10;99.90;;;9.24;100.00;102136.97;4893474;29;20056;-74
2023/12/19 02:31:07;;;;;;;75.22;44.50;;;9.00;99.90;;;9.26;100.00;102133.50;4897177;29;20067;-73
2023/12/19 02:33:35;;;;;;;74.13;45.83;;;9.00;99.90;;;9.31;100.00;102145.03;4897254;29;20126;-74
2023/12/19 02:36:05;;;;;;;68.13;45.00;;;9.10;99.90;;;9.32;100.00;102125.72;4896724;29;20052;-73
2023/12/19 02:38:33;;;;;;;71.68;47.03;;;9.10;99.90;;;9.31;100.00;102126.56;4895931;29;20058;-74
2023/12/19 02:41:03;;;;;;;66.68;44.22;;;9.10;99.90;;;9.40;100.00;102120.59;4897068;29;20132;-73
2023/12/19 02:43:31;;;;;;;67.45;44.00;;;9.10;99.90;;;9.43;100.00;102118.91;4893685;29;20419;-73
2023/12/19 02:46:00;;;;;;;71.10;44.88;;;9.20;99.90;;;9.33;100.00;102101.09;4897300;29;20584;-73
2023/12/19 02:48:28;;;;;;;66.72;43.80;;;9.20;99.90;;;9.37;100.00;102102.06;4897047;29;20406;-73
2023/12/19 02:50:57;;;;;;;67.03;44.40;;;9.10;99.90;;;9.33;100.00;102097.56;4897081;29;20387;-73
2023/12/19 02:53:27;;;;;;;64.97;42.10;;;9.10;99.90;;;9.35;100.00;102094.09;4896924;29;20048;-73
2023/12/19 02:55:56;;;;;;;65.57;43.50;;;9.10;99.90;;;9.34;100.00;102089.69;4897340;29;20054;-73
2023/12/19 02:58:25;;;;;;;71.22;44.30;;;9.10;99.90;;;9.28;100.00;102086.91;4893469;29;20401;-74
2023/12/19 03:00:54;;;;;;;65.07;42.45;;;9.10;99.90;;;9.29;100.00;102090.44;4896956;29;20057;-73
2023/12/19 03:03:22;;;;;;;70.30;46.78;;;9.10;99.90;;;9.15;100.00;102052.31;4896847;29;20053;-73
2023/12/19 03:05:51;;;;;;;74.57;45.83;;;9.10;99.90;;;9.38;100.00;102082.69;4896822;29;20053;-73
2023/12/19 03:08:19;;;;;;;79.45;46.15;;;9.10;99.90;;;9.39;100.00;102097.69;4896838;29;20045;-73
2023/12/19 03:10:48;;;;;;;72.18;43.75;;;9.20;99.90;;;9.43;100.00;102070.47;4896844;29;20083;-74
2023/12/19 03:13:16;;;;;;;68.95;45.80;;;9.20;99.90;;;9.41;100.00;102065.16;4893366;29;20052;-73
2023/12/19 03:15:47;;;;;;;88.55;46.90;;;9.20;99.90;;;9.33;100.00;102056.19;4896801;29;20036;-73
2023/12/19 03:18:16;;;;;;;82.93;48.45;;;9.20;99.90;;;9.37;100.00;102071.25;4897068;29;20469;-73
2023/12/19 03:20:44;;;;;;;78.32;46.80;;;9.20;99.90;;;9.33;100.00;102056.19;4895652;29;20167;-73
2023/12/19 03:23:13;;;;;;;75.07;45.78;;;9.20;99.90;;;9.33;100.00;102068.53;4896801;29;20053;-74
2023/12/19 03:25:41;;;;;;;72.35;45.55;;;9.10;99.90;;;9.27;100.00;102055.22;4896763;29;20083;-73
2023/12/19 03:28:10;;;;;;;64.00;43.83;;;9.10;99.90;;;9.36;100.00;102047.47;4896821;29;20104;-73
2023/12/19 03:30:38;;;;;;;69.93;42.85;;;9.10;99.90;;;9.28;100.00;102044.66;4896685;29;20128;-73
2023/12/19 03:33:08;;;;;;;59.65;40.30;;;9.10;99.90;;;9.34;100.00;102018.38;4896506;29;20144;-73
2023/12/19 03:35:36;;;;;;;58.13;37.97;;;9.10;99.90;;;9.37;100.00;102029.00;4903891;29;20137;-73
2023/12/19 03:38:05;;;;;;;53.22;36.30;;;9.10;99.90;;;9.41;100.00;102020.28;4896662;29;20297;-74
2023/12/19 03:40:35;;;;;;;46.92;37.03;;;9.20;99.90;;;9.46;100.00;102012.44;4892958;29;20047;-74
2023/12/19 03:43:05;;;;;;;56.17;39.67;;;9.20;99.90;;;9.46;100.00;101989.56;4896707;29;20168;-73
2023/12/19 03:45:34;;;;;;;61.45;42.95;;;9.20;99.90;;;9.53;100.00;101987.91;4896469;29;20056;-73
2023/12/19 03:48:03;;;;;;;64.93;42.80;;;9.30;99.90;;;9.46;100.00;101994.84;4899085;29;20072;-73
2023/12/19 03:50:33;;;;;;;63.00;42.40;;;9.30;99.90;;;9.49;100.00;101986.97;4900032;29;20076;-73
2023/12/19 03:53:01;;;;;;;70.20;42.45;;;9.30;99.90;;;9.50;100.00;101993.16;4896526;29;20079;-73
2023/12/19 03:55:30;;;;;;;64.13;44.08;;;9.30;99.90;;;9.45;100.00;101968.41;4899760;29;20060;-73
2023/12/19 03:57:58;;;;;;;68.28;45.97;;;9.30;99.90;;;9.46;100.00;101975.47;4899801;29;20122;-73
2023/12/19 04:00:27;;;;;;;65.72;42.10;;;9.20;99.90;;;9.48;100.00;101979.03;4899860;29;20072;-73
2023/12/19 04:02:55;;;;;;;58.25;41.13;;;9.20;99.90;;;9.46;100.00;101975.47;4906911;29;20406;-73
2023/12/19 04:05:24;;;;;;;59.47;39.38;;;9.30;99.90;;;9.53;100.00;101987.91;4899642;29;20136;-74
2023/12/19 04:07:53;;;;;;;55.28;38.53;;;9.30;99.90;;;9.53;100.00;101978.25;4900017;29;20075;-74
2023/12/19 04:10:22;;;;;;;57.10;40.37;;;9.30;99.90;;;9.47;100.00;101983.41;4899351;29;20056;-74
2023/12/19 04:12:50;;;;;;;55.78;39.42;;;9.30;99.90;;;9.49;100.00;101972.88;4898216;29;20052;-73
2023/12/19 04:15:19;;;;;;;55.10;36.83;;;9.30;99.90;;;9.51;100.00;101985.25;4899479;29;20132;-73
2023/12/19 04:17:47;;;;;;;59.75;38.83;;;9.30;99.90;;;9.59;100.00;101980.09;4899394;29;20048;-74
2023/12/19 04:20:16;;;;;;;56.70;37.22;;;9.40;99.90;;;9.54;100.00;101977.38;4899386;29;20139;-73
2023/12/19 04:22:44;;;;;;;57.72;38.20;;;9.30;99.90;;;9.54;100.00;101980.00;4892143;29;20488;-74
2023/12/19 04:25:15;;;;;;;57.17;38.80;;;9.30;99.90;;;9.54;100.00;101976.50;4899498;29;20052;-74
2023/12/19 04:27:43;;;;;;;56.90;38.42;;;9.30;99.90;;;9.44;100.00;101934.94;4899501;29;20053;-74
2023/12/19 04:30:12;;;;;;;53.85;38.30;;;9.30;99.90;;;9.51;100.00;101948.28;4929640;29;20406;-73
2023/12/19 04:32:41;;;;;;;52.95;36.50;;;9.30;99.90;;;9.53;100.00;101962.41;4899077;29;20044;-73
2023/12/19 04:35:10;;;;;;;53.95;38.55;;;9.30;99.90;;;9.55;100.00;101947.47;4899316;29;20376;-74
2023/12/19 04:37:39;;;;;;;63.08;40.13;;;9.30;99.90;;;9.57;100.00;101950.13;4895718;29;20060;-73
2023/12/19 04:40:08;;;;;;;64.18;40.25;;;9.30;99.90;;;9.45;100.00;101934.06;4906252;29;20506;-73
2023/12/19 04:42:38;;;;;;;59.60;40.33;;;9.40;99.90;;;9.65;100.00;101948.50;4898971;29;20059;-74
2023/12/19 04:45:08;;;;;;;59.33;40.03;;;9.40;99.90;;;9.64;100.00;101947.63;4899292;29;20387;-73
2023/12/19 04:47:36;;;;;;;66.20;41.47;;;9.40;99.90;;;9.65;100.00;101953.78;4898967;29;20054;-73
2023/12/19 04:50:08;;;;;;;65.80;42.05;;;9.40;99.90;;;9.66;100.00;101953.81;4891596;29;20049;-73
2023/12/19 04:52:36;;;;;;;67.25;41.05;;;9.40;99.90;;;9.67;100.00;101945.03;4898821;29;20072;-73
2023/12/19 04:55:06;;;;;;;69.63;42.13;;;9.40;99.90;;;9.49;100.00;101920.94;4905846;29;20053;-74
2023/12/19 04:57:34;;;;;;;66.15;42.55;;;9.40;99.90;;;9.64;100.00;101947.63;4898392;29;20091;-73
2023/12/19 05:00:06;;;;;;;70.40;42.72;;;9.40;99.90;;;9.66;100.00;101930.03;4898653;29;20037;-73
2023/12/19 05:02:35;;;;;;;67.38;42.00;;;9.50;99.90;;;9.63;100.00;101929.09;4895661;29;20392;-73
2023/12/19 05:05:03;;;;;;;66.75;42.05;;;9.40;99.90;;;9.63;100.00;101923.81;4898745;29;20073;-73
2023/12/19 05:07:32;;;;;;;66.70;42.70;;;9.40;99.90;;;9.55;100.00;101901.66;4898467;29;20053;-73
2023/12/19 05:10:00;;;;;;;66.70;39.42;;;9.40;99.90;;;9.64;100.00;101917.69;4897047;29;20060;-72
2023/12/19 05:12:31;;;;;;;57.50;38.88;;;9.40;99.90;;;9.72;100.00;101916.94;4898500;29;20063;-73
2023/12/19 05:15:00;;;;;;;59.78;36.90;;;9.50;99.90;;;9.85;100.00;101925.94;4897215;29;20103;-73
2023/12/19 05:17:30;;;;;;;55.03;34.75;;;9.60;99.90;;;9.84;100.00;101916.22;4898227;29;20491;-73
2023/12/19 05:19:58;;;;;;;61.60;36.20;;;9.60;99.90;;;9.78;100.00;101911.75;4898307;29;20057;-74
2023/12/19 05:22:27;;;;;;;46.42;32.65;;;9.60;99.90;;;9.90;100.00;101921.63;4898380;29;20372;-73
2023/12/19 05:24:55;;;;;;;57.70;35.22;;;9.60;99.90;;;9.75;100.00;101895.88;4898205;29;20048;-73
2023/12/19 05:27:24;;;;;;;53.03;35.33;;;9.70;99.90;;;9.69;100.00;101866.72;4898389;29;20423;-72
2023/12/19 05:29:52;;;;;;;53.15;34.78;;;9.70;99.90;;;10.11;100.00;101905.19;4890771;29;20449;-73
2023/12/19 05:32:20;;;;;;;50.22;31.88;;;9.80;99.90;;;10.07;100.00;101909.53;4898203;29;20438;-73
2023/12/19 05:34:50;;;;;;;48.33;30.30;;;9.90;99.90;;;10.01;100.00;101910.34;4898022;29;20052;-73
2023/12/19 05:37:19;;;;;;;57.08;33.50;;;9.80;99.90;;;10.09;100.00;101886.66;4897960;29;20050;-72
2023/12/19 05:39:49;;;;;;;57.53;33.10;;;9.90;99.90;;;10.16;100.00;101898.25;4897968;29;20135;-72
2023/12/19 05:42:18;;;;;;;56.78;32.70;;;9.90;99.90;;;10.19;100.00;101893.88;4898299;29;20447;-73
2023/12/19 05:44:46;;;;;;;51.20;32.17;;;10.00;99.90;;;10.22;100.00;101882.47;4897911;29;20052;-72
2023/12/19 05:47:15;;;;;;;56.10;31.80;;;10.00;99.90;;;10.19;100.00;101869.19;4898081;29;20044;-72
2023/12/19 05:49:43;;;;;;;49.17;30.83;;;10.00;99.90;;;10.26;100.00;101876.34;4897843;29;20810;-72
2023/12/19 05:52:13;;;;;;;52.28;30.17;;;10.00;99.90;;;10.27;100.00;101860.50;4897767;29;20127;-72
2023/12/19 05:54:42;;;;;;;51.00;29.50;;;10.00;99.90;;;10.29;100.00;101871.09;4897714;29;20041;-72
2023/12/19 05:57:10;;;;;;;59.35;32.05;;;10.10;99.90;;;10.28;100.00;101870.19;4897593;29;20300;-72
2023/12/19 05:59:40;;;;;;;55.55;31.73;;;10.10;99.90;;;10.28;100.00;101867.53;4897703;29;20049;-72
2023/12/19 06:02:08;;;;;;;58.40;31.27;;;10.10;99.90;;;10.36;100.00;101873.81;4896474;29;20060;-72
2023/12/19 06:04:37;;;;;;;63.78;33.53;;;10.10;99.90;;;10.36;100.00;101867.63;4897631;29;20084;-72
2023/12/19 06:07:05;;;;;;;56.38;32.17;;;10.20;99.90;;;10.42;100.00;101862.44;4897490;29;20048;-73
2023/12/19 06:09:35;;;;;;;48.00;31.40;;;10.20;99.90;;;10.50;100.00;101864.31;4896901;29;20403;-72
2023/12/19 06:12:05;;;;;;;52.67;32.13;;;10.20;99.90;;;10.47;100.00;101858.09;4890843;29;20081;-72
2023/12/19 06:14:33;;;;;;;58.25;33.28;;;10.20;99.90;;;10.44;100.00;101858.94;4897363;29;20049;-72
2023/12/19 06:17:02;;;;;;;52.35;31.70;;;10.20;99.90;;;10.47;100.00;101864.25;4897362;29;20462;-72
2023/12/19 06:19:30;;;;;;;60.50;32.95;;;10.20;99.90;;;10.32;100.00;101820.88;4897373;29;20064;-72
2023/12/19 06:21:59;;;;;;;59.78;35.15;;;10.30;99.90;;;10.55;100.00;101867.03;4897256;29;20566;-73
2023/12/19 06:24:28;;;;;;;57.88;32.67;;;10.30;99.90;;;10.55;100.00;101861.72;4897252;29;20048;-73
2023/12/19 06:26:57;;;;;;;56.47;34.00;;;10.30;99.90;;;10.54;100.00;101858.19;4894155;29;20076;-72
2023/12/19 06:29:26;;;;;;;58.67;34.57;;;10.30;99.90;;;10.51;100.00;101833.47;4897819;29;20053;-72
2023/12/19 06:31:54;;;;;;;60.25;33.08;;;10.30;99.90;;;10.53;100.00;101853.75;4897172;29;20357;-72
2023/12/19 06:34:23;;;;;;;59.17;33.72;;;10.30;99.90;;;10.52;100.00;101845.81;4896968;29;20048;-72
2023/12/19 06:36:51;;;;;;;62.90;34.38;;;10.30;99.90;;;10.45;100.00;101828.09;4897645;29;20052;-72
2023/12/19 06:39:20;;;;;;;65.03;33.45;;;10.30;99.90;;;10.49;100.00;101835.19;4897368;29;20104;-73
2023/12/19 06:41:48;;;;;;;55.40;32.88;;;10.30;99.90;;;10.59;100.00;101826.47;4894386;29;20052;-72
2023/12/19 06:44:18;;;;;;;69.13;33.60;;;10.40;99.90;;;10.65;100.00;101842.41;4897593;29;20095;-73
2023/12/19 06:46:49;;;;;;;60.97;32.88;;;10.40;99.90;;;10.65;100.00;101826.53;4897070;29;20048;-72
2023/12/19 06:49:18;;;;;;;69.45;34.47;;;10.40;99.90;;;10.68;100.00;101831.88;4896991;29;20048;-72
2023/12/19 06:51:46;;;;;;;66.30;33.67;;;10.50;99.90;;;10.73;100.00;101823.13;4897072;29;20123;-72
2023/12/19 06:54:14;;;;;;;66.13;33.92;;;10.50;99.90;;;10.72;100.00;101839.84;4904006;29;20058;-72
2023/12/19 06:56:43;;;;;;;68.00;34.50;;;10.50;99.90;;;10.76;100.00;101832.84;4904257;29;20045;-72
2023/12/19 06:59:11;;;;;;;71.60;34.25;;;10.50;99.90;;;10.66;100.00;101830.97;4897010;29;20048;-72
2023/12/19 07:01:41;;;;;;;60.15;33.17;;;10.50;99.90;;;10.73;100.00;101836.34;4896840;29;20514;-72
2023/12/19 07:04:09;;;;;;;52.17;31.48;;;10.50;99.90;;;10.74;100.00;101829.31;4896959;29;20410;-72
2023/12/19 07:06:38;;;;;;;59.90;31.90;;;10.50;99.90;;;10.63;100.00;101802.72;4896886;29;20061;-72
2023/12/19 07:09:06;;;;;;;51.05;29.73;;;10.60;99.90;;;10.68;100.00;101824.81;4897000;29;20063;-72
2023/12/19 07:11:35;;;;;;;48.33;28.42;;;10.50;99.90;;;10.73;100.00;101828.41;4896906;29;20049;-73
2023/12/19 07:14:04;;;;;;;49.17;29.08;;;10.50;99.90;;;10.68;100.00;101816.00;4927047;29;20045;-73
2023/12/19 07:16:32;;;;;;;60.72;30.42;;;10.50;99.90;;;10.78;100.00;101823.19;4903887;29;20384;-72
2023/12/19 07:19:03;;;;;;;49.72;29.30;;;10.50;99.90;;;10.77;100.00;101837.25;4896846;29;20049;-73
2023/12/19 07:21:32;;;;;;;46.80;28.13;;;10.50;99.90;;;10.73;100.00;101809.88;4898750;29;20080;-72
2023/12/19 07:24:01;;;;;;;49.17;29.58;;;10.60;99.90;;;10.77;100.00;101817.00;4900376;29;20049;-73
2023/12/19 07:26:31;;;;;;;47.40;28.17;;;10.50;99.90;;;10.70;100.00;101801.03;4900367;29;20096;-72
2023/12/19 07:29:02;;;;;;;44.65;27.92;;;10.50;99.90;;;10.55;100.00;101779.72;4898962;29;20044;-73
2023/12/19 07:31:32;;;;;;;41.25;26.38;;;10.50;99.90;;;10.66;100.00;101812.47;4900454;29;20060;-73
2023/12/19 07:34:04;;;;;;;44.97;28.67;;;10.50;99.90;;;10.69;100.00;101805.44;4896990;29;20059;-72
2023/12/19 07:36:35;;;;;;;45.20;28.73;;;10.50;99.90;;;10.73;100.00;101830.16;4900425;29;20400;-73
2023/12/19 07:39:05;;;;;;;50.67;31.42;;;10.50;99.90;;;10.67;100.00;101808.94;4900138;29;20461;-72
2023/12/19 07:41:34;;;;;;;51.70;29.90;;;10.50;99.90;;;10.67;100.00;101811.56;4900354;29;20475;-72
2023/12/19 07:44:02;;;;;;;50.38;29.20;;;10.50;99.90;;;10.73;100.00;101822.22;4900002;29;20520;-72
2023/12/19 07:46:31;;;;;;;46.35;28.38;;;10.50;99.90;;;10.53;100.00;101784.97;4896629;29;20052;-72
2023/12/19 07:48:59;;;;;;;50.60;28.98;;;10.50;99.90;;;10.72;100.00;101817.81;4900003;29;20071;-72
2023/12/19 07:51:29;;;;;;;45.92;29.67;;;10.50;99.90;;;10.71;100.00;101795.75;4900185;29;20486;-73
2023/12/19 07:53:57;;;;;;;44.27;27.77;;;10.50;99.90;;;10.73;100.00;101798.41;4900341;29;20047;-71
2023/12/19 07:56:26;;;;;;;41.05;26.70;;;10.50;99.90;;;10.76;100.00;101803.75;4899795;29;20040;-70
2023/12/19 07:58:54;;;;;;;48.13;27.00;;;10.50;99.90;;;10.70;100.00;101787.81;4899802;29;20055;-69
2023/12/19 08:01:22;;;;;;;35.33;25.88;;;10.50;99.90;;;10.71;100.00;101795.75;4896588;29;20824;-69
2023/12/19 08:03:51;;;;;;;33.75;23.65;;;10.50;99.90;;;10.79;100.00;101798.47;4899697;29;20498;-70
2023/12/19 08:06:19;;;;;;;41.03;25.85;;;10.50;99.90;;;10.71;100.00;101800.16;4899491;29;20056;-70
2023/12/19 08:08:51;;;;;;;41.35;25.42;;;10.50;99.90;;;10.65;100.00;101800.09;4899441;29;20649;-71
2023/12/19 08:11:20;;;;;;;42.58;24.33;;;10.50;99.90;;;10.70;100.00;101787.81;4898467;29;20143;-71
2023/12/19 08:13:53;;;;;;;31.42;23.85;;;10.50;99.90;;;10.71;100.00;101800.16;4896215;29;20037;-70
2023/12/19 08:16:22;;;;;;;39.53;23.50;;;10.50;99.90;;;10.63;100.00;101780.66;4899745;29;20040;-71
2023/12/19 08:18:51;;;;;;;38.47;25.13;;;10.50;99.90;;;10.64;100.00;101787.75;4899411;29;20056;-70
2023/12/19 08:21:20;;;;;;;39.65;25.45;;;10.40;99.90;;;10.59;100.00;101778.84;4899530;29;20458;-69
2023/12/19 08:23:51;;;;;;;35.55;25.42;;;10.40;99.90;;;10.47;100.00;101761.09;4899576;29;20048;-69
2023/12/19 08:26:20;;;;;;;34.85;25.17;;;10.40;99.90;;;10.63;100.00;101786.84;4896252;29;20053;-71
2023/12/19 08:28:49;;;;;;;40.70;26.50;;;10.40;99.90;;;10.59;100.00;101784.16;4906427;29;20562;-70
2023/12/19 08:31:18;;;;;;;34.65;25.83;;;10.40;99.90;;;10.63;100.00;101785.94;4906154;29;20045;-72
2023/12/19 08:33:46;;;;;;;33.03;24.42;;;10.40;99.90;;;10.55;100.00;101783.22;4898642;29;20053;-71
2023/12/19 08:36:15;;;;;;;40.22;27.55;;;10.30;99.90;;;10.54;100.00;101776.19;4899058;29;20136;-74
2023/12/19 08:39:07;;;;;;;35.92;24.20;;;10.30;99.90;;;10.53;100.00;101769.09;4894216;29;20410;-70
2023/12/19 08:41:37;;;;;;;33.95;23.85;;;10.30;99.90;;;10.46;100.00;101769.94;4891853;29;20045;-72
2023/12/19 08:44:06;;;;;;;33.10;24.40;;;10.20;99.90;;;10.41;100.00;101760.16;4906135;29;20059;-73
2023/12/19 08:46:34;;;;;;;33.72;25.73;;;10.20;99.90;;;10.47;100.00;101768.19;4898956;29;20053;-70
2023/12/19 08:49:03;;;;;;;33.50;24.02;;;10.20;99.90;;;10.41;100.00;101757.53;4898966;29;20127;-71
2023/12/19 08:51:31;;;;;;;34.63;23.70;;;10.20;99.90;;;10.48;100.00;101760.25;4898899;29;20056;-72
2023/12/19 08:54:00;;;;;;;34.47;24.33;;;10.30;99.90;;;10.33;100.00;101738.03;4898813;29;20123;-70
2023/12/19 08:56:30;;;;;;;33.08;23.52;;;10.20;99.90;;;10.46;100.00;101756.69;4891348;29;20041;-70
2023/12/19 08:58:58;;;;;;;35.03;24.40;;;10.20;99.90;;;10.41;100.00;101752.25;4898774;29;20521;-71
2023/12/19 09:01:27;;;;;;;32.25;23.83;;;10.20;99.90;;;10.53;100.00;101762.94;4905769;29;20313;-71
2023/12/19 09:03:55;;;;;;;36.63;24.35;;;10.20;99.90;;;10.44;100.00;101750.50;4898925;29;20053;-70
2023/12/19 09:06:23;;;;;;;34.33;23.80;;;10.30;99.90;;;10.44;100.00;101752.25;4898792;29;20060;-71
2023/12/19 09:08:52;;;;;;;30.77;22.77;;;10.30;99.90;;;10.45;100.00;101748.75;4898401;29;20045;-70
2023/12/19 09:11:20;;;;;;;34.80;23.10;;;10.20;99.90;;;10.49;100.00;101766.44;4898519;29;20068;-69
2023/12/19 09:13:50;;;;;;;36.35;23.95;;;10.20;99.90;;;10.44;100.00;101758.44;4898456;29;20050;-67
2023/12/19 09:16:19;;;;;;;34.28;24.15;;;10.20;99.90;;;10.44;100.00;101753.16;4898293;29;20056;-70
2023/12/19 09:18:47;;;;;;;33.00;22.80;;;10.20;99.90;;;10.43;100.00;101748.72;4898307;29;20495;-71
2023/12/19 09:21:16;;;;;;;33.22;23.73;;;10.20;99.90;;;10.26;100.00;101725.63;4898832;29;20123;-69
2023/12/19 09:23:45;;;;;;;34.35;23.23;;;10.20;99.90;;;10.45;100.00;101738.19;4898196;29;20053;-69
2023/12/19 09:26:14;;;;;;;32.35;23.10;;;10.20;99.90;;;10.37;100.00;101716.03;4894872;29;20433;-67
2023/12/19 09:28:42;;;;;;;33.65;24.15;;;10.20;99.90;;;10.50;100.00;101732.06;4898214;29;20056;-69
2023/12/19 09:31:12;;;;;;;33.50;23.08;;;10.30;99.90;;;10.44;100.00;101725.81;4905372;29;20049;-69
2023/12/19 09:33:41;;;;;;;34.28;23.85;;;10.20;99.90;;;10.53;100.00;101749.72;4898118;29;20558;-69
2023/12/19 09:36:10;;;;;;;29.65;23.75;;;10.30;99.90;;;10.49;100.00;101730.25;4897876;29;20052;-71
2023/12/19 09:38:38;;;;;;;34.45;23.77;;;10.30;99.90;;;10.48;100.00;101709.09;4894271;29;20075;-71
2023/12/19 09:41:07;;;;;;;32.38;23.13;;;10.30;99.90;;;10.56;100.00;101721.53;4897960;29;20086;-71
2023/12/19 09:43:35;;;;;;;31.23;22.65;;;10.30;99.90;;;10.55;100.00;101729.47;4897931;29;20052;-73
2023/12/19 09:46:05;;;;;;;29.20;22.42;;;10.30;99.90;;;10.60;100.00;101717.16;4897393;29;20127;-70
2023/12/19 09:48:37;;;;;;;29.45;21.75;;;10.40;99.90;;;10.69;100.00;101717.22;4898050;29;20455;-71
2023/12/19 09:51:16;;;;;;;28.70;21.13;;;10.40;99.90;;;10.69;100.00;101711.94;4890583;29;20096;-70
2023/12/19 09:53:47;;;;;;;32.25;21.45;;;10.40;99.90;;;10.63;100.00;101717.16;4897619;29;20048;-70
2023/12/19 09:56:17;;;;;;;29.85;21.05;;;10.40;99.90;;;10.62;100.00;101726.00;4897912;29;20059;-70
2023/12/19 09:58:47;;;;;;;33.85;19.98;;;10.40;99.90;;;10.59;100.00;101718.91;4897537;29;20056;-73
2023/12/19 10:01:17;;;;;;;25.73;19.45;;;10.40;99.90;;;10.60;100.00;101723.34;4897727;29;20787;-72
2023/12/19 10:03:49;;;;;;;28.20;20.07;;;10.40;99.90;;;10.61;100.00;101716.25;4897573;29;20498;-70
2023/12/19 10:06:19;;;;;;;28.17;20.25;;;10.40;99.90;;;10.68;100.00;101704.88;4897516;29;20112;-71
2023/12/19 10:08:53;;;;;;;28.60;18.40;;;10.40;99.90;;;10.66;100.00;101702.22;4893994;29;20052;-70